createdAt,value
2022-11-16T00:02:12.989Z,36.30
2022-11-16T00:07:06.743Z,34.90
2022-11-16T00:09:34.068Z,35.40
2022-11-16T00:12:03.911Z,35.50
2022-11-16T00:14:32.985Z,36.05
2022-11-16T00:17:00.288Z,34.35
2022-11-16T00:19:27.639Z,35.60
2022-11-16T00:21:54.968Z,36.05
2022-11-16T00:24:23.491Z,36.37
2022-11-16T00:26:50.622Z,36.50
2022-11-16T00:29:20.233Z,36.35
2022-11-16T00:31:47.694Z,35.53
2022-11-16T00:34:15.161Z,36.88
2022-11-16T00:36:42.252Z,36.17
2022-11-16T00:39:11.968Z,36.10
2022-11-16T00:41:39.049Z,36.13
2022-11-16T00:44:06.419Z,35.85
2022-11-16T00:46:33.379Z,38.28
2022-11-16T00:49:01.501Z,37.42
2022-11-16T00:51:28.457Z,37.45
2022-11-16T00:53:55.264Z,37.85
2022-11-16T00:56:23.166Z,37.65
2022-11-16T00:58:50.205Z,38.30
2022-11-16T01:01:17.935Z,36.95
2022-11-16T01:03:44.915Z,37.45
2022-11-16T01:06:14.846Z,35.05
2022-11-16T01:08:42.939Z,34.63
2022-11-16T01:11:30.607Z,35.70
2022-11-16T01:13:58.825Z,35.80
2022-11-16T01:16:25.642Z,35.90
2022-11-16T01:18:54.172Z,34.35
2022-11-16T01:21:22.738Z,34.17
2022-11-16T01:23:49.803Z,34.38
2022-11-16T01:26:17.072Z,34.13
2022-11-16T01:28:44.431Z,35.08
2022-11-16T01:31:12.578Z,35.03
2022-11-16T01:33:40.545Z,36.53
2022-11-16T01:36:14.849Z,34.53
2022-11-16T01:38:45.501Z,35.70
2022-11-16T01:41:15.803Z,36.05
2022-11-16T01:44:14.385Z,35.30
2022-11-16T01:46:52.678Z,35.38
2022-11-16T01:49:24.025Z,36.28
2022-11-16T01:52:01.601Z,35.83
2022-11-16T01:54:34.269Z,36.17
2022-11-16T01:57:04.245Z,35.13
2022-11-16T01:59:36.502Z,34.58
2022-11-16T02:02:04.860Z,34.72
2022-11-16T02:04:32.847Z,34.45
2022-11-16T02:07:16.942Z,35.17
2022-11-16T02:09:59.061Z,34.08
2022-11-16T02:12:37.497Z,35.60
2022-11-16T02:15:33.126Z,35.95
2022-11-16T02:18:47.013Z,33.80
2022-11-16T02:21:31.341Z,34.38
2022-11-16T02:24:26.997Z,34.33
2022-11-16T02:27:07.817Z,33.85
2022-11-16T02:29:43.694Z,34.35
2022-11-16T02:32:20.929Z,35.80
2022-11-16T02:35:02.521Z,34.95
2022-11-16T02:37:34.663Z,34.38
2022-11-16T02:40:07.135Z,33.72
2022-11-16T02:42:46.229Z,34.65
2022-11-16T02:45:19.250Z,34.85
2022-11-16T02:47:48.105Z,35.95
2022-11-16T02:50:18.769Z,37.47
2022-11-16T02:52:45.752Z,36.05
2022-11-16T02:55:13.244Z,35.60
2022-11-16T02:57:53.389Z,36.28
2022-11-16T03:00:26.535Z,35.92
2022-11-16T03:03:08.019Z,36.50
2022-11-16T03:05:40.924Z,35.40
2022-11-16T03:08:19.030Z,37.25
2022-11-16T03:11:11.405Z,34.35
2022-11-16T03:13:41.205Z,36.08
2022-11-16T03:16:22.971Z,35.05
2022-11-16T03:18:52.193Z,36.90
2022-11-16T03:21:41.269Z,36.03
2022-11-16T03:24:09.009Z,36.63
2022-11-16T03:26:46.723Z,36.13
2022-11-16T03:29:39.757Z,37.20
2022-11-16T03:32:27.314Z,36.70
2022-11-16T03:35:04.471Z,36.60
2022-11-16T03:37:33.088Z,38.45
2022-11-16T03:40:02.687Z,37.80
2022-11-16T03:42:33.157Z,36.28
2022-11-16T03:45:00.993Z,36.67
2022-11-16T03:47:28.010Z,36.38
2022-11-16T03:49:55.072Z,36.28
2022-11-16T03:52:28.000Z,35.58
2022-11-16T03:54:54.990Z,36.20
2022-11-16T03:57:24.903Z,37.30
2022-11-16T03:59:55.382Z,36.42
2022-11-16T04:02:22.611Z,36.50
2022-11-16T04:05:09.713Z,37.80
2022-11-16T04:07:55.981Z,34.65
2022-11-16T04:10:42.360Z,36.72
2022-11-16T04:13:30.969Z,36.47
2022-11-16T04:16:18.898Z,36.80
2022-11-16T04:19:04.758Z,36.47
2022-11-16T04:21:58.153Z,36.35
2022-11-16T04:24:32.476Z,36.65
2022-11-16T04:27:21.839Z,35.50
2022-11-16T04:29:49.214Z,37.38
2022-11-16T04:32:35.241Z,36.10
2022-11-16T04:35:20.777Z,37.08
2022-11-16T04:37:52.251Z,38.17
2022-11-16T04:40:31.682Z,36.03
2022-11-16T04:43:03.228Z,37.15
2022-11-16T04:45:52.901Z,37.55
2022-11-16T04:48:24.014Z,36.75
2022-11-16T04:50:53.449Z,36.60
2022-11-16T04:53:22.442Z,38.05
2022-11-16T04:56:00.667Z,39.42
2022-11-16T04:58:29.534Z,38.10
2022-11-16T05:00:56.495Z,37.83
2022-11-16T05:03:23.420Z,39.88
2022-11-16T05:05:50.766Z,40.13
2022-11-16T05:08:20.349Z,41.67
2022-11-16T05:10:51.755Z,40.90
2022-11-16T05:13:19.373Z,41.38
2022-11-16T05:15:46.668Z,42.03
2022-11-16T05:18:14.131Z,41.67
2022-11-16T05:20:59.548Z,42.77
2022-11-16T05:23:46.588Z,42.75
2022-11-16T05:26:16.200Z,42.03
2022-11-16T05:28:43.354Z,42.63
2022-11-16T05:31:12.272Z,42.28
2022-11-16T05:33:39.322Z,43.35
2022-11-16T05:36:06.947Z,43.08
2022-11-16T05:41:01.761Z,42.20
2022-11-16T05:43:29.780Z,42.85
2022-11-16T05:46:28.610Z,42.53
2022-11-16T05:48:58.467Z,44.38
2022-11-16T05:51:26.047Z,44.88
2022-11-16T05:53:54.590Z,44.70
2022-11-16T05:56:23.280Z,45.58
2022-11-16T05:58:52.540Z,43.60
2022-11-16T06:01:20.239Z,44.33
2022-11-16T06:03:49.358Z,43.58
2022-11-16T06:06:16.241Z,44.45
2022-11-16T06:08:43.535Z,45.97
2022-11-16T06:11:14.647Z,45.47
2022-11-16T06:13:42.417Z,44.70
2022-11-16T06:16:09.927Z,47.17
2022-11-16T06:18:42.937Z,49.80
2022-11-16T06:21:11.234Z,46.53
2022-11-16T06:26:06.386Z,44.72
2022-11-16T06:31:00.949Z,42.85
2022-11-16T06:33:33.627Z,44.72
2022-11-16T06:36:04.066Z,44.78
2022-11-16T06:38:32.147Z,44.85
2022-11-16T06:41:00.090Z,46.08
2022-11-16T06:43:29.298Z,46.08
2022-11-16T06:45:58.389Z,45.80
2022-11-16T06:48:25.471Z,46.30
2022-11-16T06:50:52.787Z,44.58
2022-11-16T06:53:27.564Z,45.05
2022-11-16T06:56:04.714Z,44.33
2022-11-16T06:58:35.798Z,41.95
2022-11-16T07:01:11.750Z,44.55
2022-11-16T07:03:41.112Z,45.00
2022-11-16T07:06:11.836Z,43.58
2022-11-16T07:08:40.824Z,44.05
2022-11-16T07:13:38.005Z,40.80
2022-11-16T07:16:11.320Z,41.78
2022-11-16T07:18:43.147Z,42.92
2022-11-16T07:21:13.035Z,43.63
2022-11-16T07:23:40.226Z,43.40
2022-11-16T07:26:10.978Z,43.00
2022-11-16T07:28:48.544Z,42.47
2022-11-16T07:31:18.996Z,41.70
2022-11-16T07:33:46.528Z,41.58
2022-11-16T07:36:48.608Z,42.15
2022-11-16T07:39:17.106Z,40.88
2022-11-16T07:41:45.219Z,40.63
2022-11-16T07:44:24.967Z,40.80
2022-11-16T07:47:05.361Z,41.00
2022-11-16T07:49:36.464Z,41.78
2022-11-16T07:52:13.487Z,40.88
2022-11-16T07:55:05.635Z,41.63
2022-11-16T07:57:36.588Z,41.63
2022-11-16T08:00:11.129Z,41.10
2022-11-16T08:02:51.090Z,42.00
2022-11-16T08:05:20.137Z,42.80
2022-11-16T08:07:49.234Z,42.30
2022-11-16T08:10:16.981Z,42.78
2022-11-16T08:12:43.980Z,42.35
2022-11-16T08:15:11.658Z,42.45
2022-11-16T08:17:38.519Z,42.13
2022-11-16T08:20:08.312Z,42.35
2022-11-16T08:22:37.464Z,41.75
2022-11-16T08:25:05.019Z,41.95
2022-11-16T08:27:33.803Z,40.40
2022-11-16T08:30:03.187Z,41.33
2022-11-16T08:32:33.749Z,42.50
2022-11-16T08:35:00.668Z,43.00
2022-11-16T08:37:34.763Z,41.28
2022-11-16T08:40:03.508Z,42.15
2022-11-16T08:42:32.849Z,42.20
2022-11-16T08:44:59.905Z,41.85
2022-11-16T08:47:26.785Z,40.05
2022-11-16T08:49:56.302Z,41.40
2022-11-16T08:52:25.550Z,42.58
2022-11-16T08:54:54.033Z,41.65
2022-11-16T08:57:21.357Z,42.40
2022-11-16T08:59:58.845Z,44.42
2022-11-16T09:02:26.111Z,43.28
2022-11-16T09:04:53.503Z,52.22
2022-11-16T09:07:21.201Z,44.70
2022-11-16T09:09:48.593Z,42.50
2022-11-16T09:12:15.687Z,44.03
2022-11-16T09:14:42.481Z,43.33
2022-11-16T09:17:09.427Z,44.08
2022-11-16T09:19:36.205Z,43.17
2022-11-16T09:22:03.201Z,44.20
2022-11-16T09:24:29.996Z,43.20
2022-11-16T09:26:58.519Z,44.00
2022-11-16T09:29:27.494Z,42.78
2022-11-16T09:31:55.102Z,42.70
2022-11-16T09:34:22.001Z,42.90
2022-11-16T09:36:48.808Z,41.97
2022-11-16T09:39:32.043Z,42.67
2022-11-16T09:42:31.047Z,41.80
2022-11-16T09:45:12.357Z,41.97
2022-11-16T09:47:57.595Z,43.53
2022-11-16T09:50:53.192Z,45.15
2022-11-16T09:53:47.136Z,43.85
2022-11-16T09:56:22.878Z,41.97
2022-11-16T09:59:12.223Z,39.72
2022-11-16T10:02:15.035Z,42.53
2022-11-16T10:04:58.200Z,41.08
2022-11-16T10:07:44.534Z,40.47
2022-11-16T10:10:18.085Z,41.05
2022-11-16T10:13:05.615Z,39.33
2022-11-16T10:15:49.843Z,40.92
2022-11-16T10:18:39.652Z,39.60
2022-11-16T10:21:27.414Z,39.50
2022-11-16T10:24:00.373Z,39.25
2022-11-16T10:26:37.501Z,37.15
2022-11-16T10:29:25.900Z,38.93
2022-11-16T10:32:28.702Z,40.92
2022-11-16T10:35:05.975Z,46.15
2022-11-16T10:37:38.003Z,37.47
2022-11-16T10:40:36.942Z,36.67
2022-11-16T10:43:18.738Z,34.45
2022-11-16T10:45:51.713Z,34.60
2022-11-16T10:48:42.458Z,34.13
2022-11-16T10:51:10.610Z,31.38
2022-11-16T10:53:43.692Z,33.50
2022-11-16T10:56:20.348Z,30.83
2022-11-16T10:58:56.123Z,29.90
2022-11-16T11:01:50.692Z,29.25
2022-11-16T11:04:31.495Z,28.42
2022-11-16T11:07:21.335Z,27.77
2022-11-16T11:09:55.046Z,27.02
2022-11-16T11:12:38.656Z,28.13
2022-11-16T11:15:11.534Z,24.08
2022-11-16T11:17:43.573Z,23.65
2022-11-16T11:20:16.890Z,22.83
2022-11-16T11:22:56.758Z,21.30
2022-11-16T11:25:29.619Z,21.38
2022-11-16T11:28:18.161Z,21.83
2022-11-16T11:30:59.099Z,21.67
2022-11-16T11:33:53.785Z,21.17
2022-11-16T11:36:31.809Z,21.67
2022-11-16T11:39:28.254Z,21.60
2022-11-16T11:42:07.611Z,20.83
2022-11-16T11:44:49.623Z,20.98
2022-11-16T11:50:16.641Z,21.10
2022-11-16T11:53:05.697Z,20.77
2022-11-16T11:55:32.487Z,20.42
2022-11-16T11:58:01.938Z,21.15
2022-11-16T12:00:43.104Z,20.85
2022-11-16T12:03:47.323Z,21.80
2022-11-16T12:06:27.867Z,22.13
2022-11-16T12:09:24.119Z,21.95
2022-11-16T12:12:10.472Z,21.65
2022-11-16T12:15:05.603Z,23.02
2022-11-16T12:18:04.273Z,22.73
2022-11-16T12:20:37.845Z,23.55
2022-11-16T12:23:17.912Z,23.15
2022-11-16T12:26:11.579Z,24.85
2022-11-16T12:28:58.756Z,23.55
2022-11-16T12:31:31.944Z,23.00
2022-11-16T12:34:26.965Z,22.33
2022-11-16T12:37:14.588Z,24.25
2022-11-16T12:40:04.749Z,22.98
2022-11-16T12:42:50.025Z,23.02
2022-11-16T12:45:32.428Z,23.17
2022-11-16T12:48:03.632Z,23.52
2022-11-16T12:50:52.080Z,23.23
2022-11-16T12:53:26.739Z,22.48
2022-11-16T12:56:15.229Z,22.60
2022-11-16T12:59:13.704Z,26.27
2022-11-16T13:02:00.982Z,24.75
2022-11-16T13:04:51.426Z,23.77
2022-11-16T13:07:41.117Z,21.42
2022-11-16T13:10:24.542Z,21.67
2022-11-16T13:13:22.043Z,21.15
2022-11-16T13:15:46.295Z,20.33
2022-11-16T13:18:17.144Z,20.02
2022-11-16T13:21:01.695Z,19.60
2022-11-16T13:23:57.843Z,19.95
2022-11-16T13:26:35.746Z,19.15
2022-11-16T13:29:30.595Z,19.55
2022-11-16T13:32:24.965Z,19.55
2022-11-16T13:34:52.575Z,19.63
2022-11-16T13:37:37.695Z,19.75
2022-11-16T13:40:04.586Z,19.83
2022-11-16T13:42:38.961Z,19.13
2022-11-16T13:45:17.670Z,19.40
2022-11-16T13:47:56.748Z,19.50
2022-11-16T13:50:37.259Z,20.17
2022-11-16T13:56:00.510Z,19.75
2022-11-16T13:58:29.801Z,19.45
2022-11-16T14:00:59.406Z,19.00
2022-11-16T14:03:29.420Z,19.65
2022-11-16T14:05:56.293Z,19.02
2022-11-16T14:08:23.012Z,19.40
2022-11-16T14:10:52.533Z,19.58
2022-11-16T14:13:39.915Z,20.25
2022-11-16T14:16:27.607Z,20.40
2022-11-16T14:19:00.530Z,20.20
2022-11-16T14:21:46.010Z,20.85
2022-11-16T14:24:48.105Z,20.17
2022-11-16T14:27:17.882Z,23.30
2022-11-16T14:29:47.692Z,22.13
2022-11-16T14:32:22.498Z,23.35
2022-11-16T14:34:51.869Z,23.60
2022-11-16T14:37:24.614Z,24.27
2022-11-16T14:39:57.792Z,23.20
2022-11-16T14:42:38.135Z,23.52
2022-11-16T14:45:33.298Z,24.15
2022-11-16T14:48:22.048Z,24.70
2022-11-16T14:51:06.963Z,24.33
2022-11-16T14:53:37.875Z,25.98
2022-11-16T14:56:13.876Z,26.58
2022-11-16T14:59:00.541Z,25.00
2022-11-16T15:01:39.547Z,25.33
2022-11-16T15:04:12.163Z,26.00
2022-11-16T15:06:47.386Z,23.88
2022-11-16T15:09:30.953Z,24.95
2022-11-16T15:12:18.195Z,24.85
2022-11-16T15:14:56.067Z,24.08
2022-11-16T15:17:31.880Z,23.05
2022-11-16T15:20:03.626Z,23.73
2022-11-16T15:22:32.687Z,22.90
2022-11-16T15:25:01.353Z,22.17
2022-11-16T15:27:38.873Z,21.52
2022-11-16T15:30:27.018Z,21.75
2022-11-16T15:32:54.916Z,21.92
2022-11-16T15:35:30.738Z,21.92
2022-11-16T15:38:19.945Z,21.38
2022-11-16T15:40:53.293Z,20.48
2022-11-16T15:43:31.157Z,20.30
2022-11-16T15:46:00.045Z,19.00
2022-11-16T15:48:28.197Z,20.38
2022-11-16T15:53:39.065Z,18.48
2022-11-16T15:56:26.095Z,17.30
2022-11-16T15:58:54.822Z,17.10
2022-11-16T16:01:22.937Z,17.15
2022-11-16T16:06:48.372Z,16.70
2022-11-16T16:09:34.194Z,16.33
2022-11-16T16:12:26.310Z,15.93
2022-11-16T16:15:13.294Z,16.58
2022-11-16T16:17:45.980Z,18.10
2022-11-16T16:20:19.901Z,15.40
2022-11-16T16:22:46.965Z,16.38
2022-11-16T16:25:38.399Z,16.35
2022-11-16T16:28:13.670Z,16.70
2022-11-16T16:30:40.744Z,16.45
2022-11-16T16:33:16.976Z,17.65
2022-11-16T16:35:45.519Z,17.58
2022-11-16T16:38:13.934Z,17.13
2022-11-16T16:40:40.697Z,17.65
2022-11-16T16:43:07.561Z,16.88
2022-11-16T16:45:41.294Z,18.58
2022-11-16T16:48:14.262Z,19.45
2022-11-16T16:50:41.124Z,21.08
2022-11-16T16:53:14.564Z,19.92
2022-11-16T16:55:42.580Z,19.77
2022-11-16T16:58:13.513Z,19.50
2022-11-16T17:00:41.076Z,19.88
2022-11-16T17:03:08.295Z,18.85
2022-11-16T17:05:35.243Z,19.20
2022-11-16T17:08:02.443Z,19.45
2022-11-16T17:10:29.377Z,20.90
2022-11-16T17:12:57.222Z,19.73
2022-11-16T17:15:24.452Z,18.67
2022-11-16T17:17:51.517Z,19.80
2022-11-16T17:20:18.341Z,18.70
2022-11-16T17:22:45.986Z,18.40
2022-11-16T17:25:13.186Z,18.05
2022-11-16T17:27:40.062Z,18.00
2022-11-16T17:30:07.658Z,18.52
2022-11-16T17:32:34.587Z,18.00
2022-11-16T17:35:01.370Z,18.33
2022-11-16T17:37:28.152Z,18.40
2022-11-16T17:39:55.163Z,17.25
2022-11-16T17:42:21.992Z,17.65
2022-11-16T17:44:49.638Z,18.05
2022-11-16T17:47:16.439Z,17.75
2022-11-16T17:49:43.260Z,17.88
2022-11-16T17:52:11.054Z,17.70
2022-11-16T17:54:38.195Z,18.15
2022-11-16T17:57:05.201Z,18.98
2022-11-16T17:59:32.849Z,18.73
2022-11-16T18:01:59.592Z,19.02
2022-11-16T18:04:26.429Z,19.23
2022-11-16T18:06:53.346Z,19.48
2022-11-16T18:09:20.491Z,19.15
2022-11-16T18:11:47.766Z,19.03
2022-11-16T18:14:23.793Z,19.05
2022-11-16T18:16:50.616Z,19.27
2022-11-16T18:19:19.259Z,18.73
2022-11-16T18:21:47.771Z,18.27
2022-11-16T18:24:14.588Z,18.25
2022-11-16T18:26:41.817Z,18.35
2022-11-16T18:29:12.262Z,17.85
2022-11-16T18:31:39.192Z,17.83
2022-11-16T18:34:06.321Z,17.20
2022-11-16T18:36:33.218Z,17.83
2022-11-16T18:39:00.288Z,16.65
2022-11-16T18:41:29.611Z,17.20
2022-11-16T18:44:00.962Z,17.55
2022-11-16T18:46:30.231Z,17.92
2022-11-16T18:48:57.754Z,17.48
2022-11-16T18:51:26.968Z,17.48
2022-11-16T18:53:54.466Z,17.55
2022-11-16T18:56:22.320Z,17.50
2022-11-16T18:58:51.012Z,18.25
2022-11-16T19:01:20.677Z,18.48
2022-11-16T19:03:47.988Z,17.60
2022-11-16T19:06:16.964Z,18.40
2022-11-16T19:08:46.874Z,18.05
2022-11-16T19:11:17.170Z,17.67
2022-11-16T19:13:44.874Z,18.30
2022-11-16T19:16:13.336Z,17.75
2022-11-16T19:18:40.355Z,17.73
2022-11-16T19:21:09.473Z,17.67
2022-11-16T19:23:44.529Z,16.50
2022-11-16T19:26:13.309Z,16.85
2022-11-16T19:28:44.575Z,17.20
2022-11-16T19:31:15.616Z,16.30
2022-11-16T19:33:43.120Z,14.70
2022-11-16T19:36:15.253Z,15.13
2022-11-16T19:38:44.305Z,15.65
2022-11-16T19:41:12.956Z,15.25
2022-11-16T19:43:40.291Z,14.80
2022-11-16T19:46:11.570Z,15.20
2022-11-16T19:48:39.012Z,15.40
2022-11-16T19:51:07.236Z,16.48
2022-11-16T19:53:34.965Z,14.80
2022-11-16T19:56:02.598Z,14.25
2022-11-16T19:58:30.913Z,14.68
2022-11-16T20:03:32.444Z,15.18
2022-11-16T20:06:14.825Z,14.27
2022-11-16T20:08:46.203Z,15.30
2022-11-16T20:11:18.394Z,14.80
2022-11-16T20:13:46.054Z,14.13
2022-11-16T20:16:17.067Z,14.32
2022-11-16T20:18:45.173Z,14.80
2022-11-16T20:21:24.072Z,14.80
2022-11-16T20:23:51.783Z,13.40
2022-11-16T20:26:20.227Z,14.02
2022-11-16T20:28:50.965Z,14.13
2022-11-16T20:31:20.176Z,13.00
2022-11-16T20:33:58.067Z,12.75
2022-11-16T20:36:27.756Z,13.90
2022-11-16T20:38:55.736Z,13.13
2022-11-16T20:41:27.986Z,14.13
2022-11-16T20:43:56.669Z,13.23
2022-11-16T20:46:26.839Z,13.70
2022-11-16T20:48:54.569Z,12.48
2022-11-16T20:51:21.499Z,13.20
2022-11-16T20:53:49.655Z,12.65
2022-11-16T21:01:28.720Z,12.60
2022-11-16T21:03:56.978Z,11.80
2022-11-16T21:06:24.178Z,11.68
2022-11-16T21:08:51.046Z,11.82
2022-11-16T21:14:18.546Z,11.55
2022-11-16T21:16:45.475Z,11.43
2022-11-16T21:19:12.619Z,11.35
2022-11-16T21:21:40.863Z,10.98
2022-11-16T21:24:11.092Z,10.27
2022-11-16T21:26:38.344Z,10.13
2022-11-16T21:29:05.446Z,11.23
2022-11-16T21:31:34.783Z,11.18
2022-11-16T21:34:02.208Z,9.90
2022-11-16T21:36:30.982Z,10.25
2022-11-16T21:38:58.459Z,10.07
2022-11-16T21:41:26.214Z,10.15
2022-11-16T21:43:53.152Z,10.88
2022-11-16T21:46:22.506Z,10.85
2022-11-16T21:48:50.976Z,9.90
2022-11-16T21:51:19.584Z,10.00
2022-11-16T21:53:47.088Z,10.70
2022-11-16T21:56:16.448Z,10.10
2022-11-16T21:58:43.566Z,10.60
2022-11-16T22:01:12.005Z,10.85
2022-11-16T22:03:39.415Z,10.23
2022-11-16T22:06:26.125Z,13.90
2022-11-16T22:08:53.098Z,14.43
2022-11-16T22:11:22.102Z,11.75
2022-11-16T22:13:50.129Z,10.90
2022-11-16T22:16:18.384Z,10.68
2022-11-16T22:18:45.474Z,10.73
2022-11-16T22:21:12.304Z,11.10
2022-11-16T22:23:39.456Z,10.55
2022-11-16T22:26:11.899Z,10.25
2022-11-16T22:28:39.261Z,10.13
2022-11-16T22:31:11.445Z,10.53
2022-11-16T22:33:39.467Z,10.30
2022-11-16T22:38:35.860Z,9.07
2022-11-16T22:41:02.658Z,9.25
2022-11-16T22:43:30.551Z,9.57
2022-11-16T22:46:02.481Z,9.00
2022-11-16T22:48:34.176Z,8.10
2022-11-16T22:51:06.801Z,7.63
2022-11-16T22:53:34.250Z,7.32
2022-11-16T22:56:05.995Z,7.78
2022-11-16T22:58:32.844Z,7.20
2022-11-16T23:00:59.670Z,7.68
2022-11-16T23:03:26.525Z,8.68
2022-11-16T23:05:53.351Z,8.63
2022-11-16T23:08:24.683Z,7.93
2022-11-16T23:11:26.748Z,7.70
2022-11-16T23:14:13.445Z,7.65
2022-11-16T23:16:41.236Z,7.90
2022-11-16T23:19:28.405Z,8.40
2022-11-16T23:22:14.604Z,8.70
2022-11-16T23:25:00.593Z,8.07
2022-11-16T23:27:41.727Z,8.18
2022-11-16T23:30:12.813Z,8.57
2022-11-16T23:32:40.830Z,8.52
2022-11-16T23:35:08.194Z,7.93
2022-11-16T23:37:35.231Z,8.65
2022-11-16T23:40:02.051Z,8.27
2022-11-16T23:42:47.846Z,7.75
2022-11-16T23:45:15.310Z,7.93
2022-11-16T23:47:42.149Z,6.15
2022-11-16T23:50:12.141Z,7.80
2022-11-16T23:52:38.932Z,7.75
2022-11-16T23:55:06.217Z,7.90
2022-11-16T23:57:32.959Z,7.70
2022-11-16T23:59:59.735Z,7.68
